Tapachula Airport, Mexico

3:47 AM CST on February 12, 2016 (GMT -0600)
Tapachula International | | Change Station
CLOSE
Current Station
Airport
Location: Tapachula Airport,
Elevation: 95 ft
Nearby Weather Stations

Elev 95 ft 14.79 °N, 92.37 °W | Updated 1 hour ago

Clear
Clear
73 °F
Feels Like 73 °F
N
9
Wind Variable Wind from East

Today
High -- | Low -- °F
--% Chance of Precip.
Yesterday
High -- | Low -- °F
Precip. -- in
Pressure 29.93 in
Visibility 8.0 miles
Clouds Clear
Dew Point 70 °F
Humidity 88%
Rainfall 0.00 in
Snow Depth Not available.
6:34 AM 6:12 PM
Waxing Crescent, 19% visible
METAR MMTP 120842Z 09008KT 8SM SKC 23/21 A2995 RMK SLP133 57007 911
Pressure 29.93 in
Visibility 8.0 miles
Clouds Clear
Dew Point 70 °F
Humidity 88%
Rainfall 0.00 in
Snow Depth Not available.
6:34 AM 6:12 PM
Waxing Crescent, 19% visible
METAR MMTP 120842Z 09008KT 8SM SKC 23/21 A2995 RMK SLP133 57007 911

10-Day Weather Forecast

No radar image for this location.
×

Almanac

Astronomy

Feb. 12, 2016 Rise Set
Actual Time
Civil Twilight
Nautical Twilight
Astronomical Twilight
Moon
Length of Visible Light
Length of Day
Tomorrow will be .
, % of the Moon is Illuminated

Today's Extremes

Country Highs Country Lows

Community

WunderPhotos

Upload Photos

1,892,286 photos uploaded!

WunderBlog® & News

Nearby

Air Quality

  Air Quality AQ Index Pollutant
Not available.

Snow Depth

Station Depth Elevation

Earthquake Activity

City Distance Mag. Time & Date
Minimum magnitude displayed is 2.5.

Coastal Water Temperatures

Place Temperature

Stations

Nearby Weather Stations

Station Location Temp. Windchill Dew Point Humidity Wind Precip. Elev Updated Type